Observation data for Childress on 09/11/2017      Previous  Date  Next       Current Mesonet Observations  Soil Data  Daily Summary Page  Observations in Plain Language
KCXS 110500Z 13009KT 18/10 A3019 RMK A01 T01750100  RH  063%=      5-min Rain = 0
KCXS 110505Z 13009KT 17/10 A3019 RMK A01 T01740100  RH  064%=      5-min Rain = 0
KCXS 110510Z 13009KT 17/10 A3019 RMK A01 T01740099  RH  063%=      5-min Rain = 0
KCXS 110515Z 13009KT 17/10 A3019 RMK A01 T01740099  RH  063%=      5-min Rain = 0
KCXS 110520Z 13009KT 18/10 A3019 RMK A01 T01770099  RH  062%=      5-min Rain = 0
KCXS 110525Z 14009KT 18/10 A3019 RMK A01 T01790098  RH  061%=      5-min Rain = 0
KCXS 110530Z 14009KT 18/10 A3019 RMK A01 T01800098  RH  061%=      5-min Rain = 0
KCXS 110535Z 14009KT 18/10 A3019 RMK A01 T01800098  RH  061%=      5-min Rain = 0
KCXS 110540Z 14009KT 18/10 A3019 RMK A01 T01800098  RH  061%=      5-min Rain = 0
KCXS 110545Z 14009KT 18/10 A3019 RMK A01 T01800098  RH  061%=      5-min Rain = 0
KCXS 110550Z 14008KT 18/10 A3019 RMK A01 T01790098  RH  061%=      5-min Rain = 0
KCXS 110555Z 14008KT 18/10 A3019 RMK A01 T01780098  RH  062%=      5-min Rain = 0
KCXS 110600Z 15008KT 18/10 A3019 RMK A01 T01760098  RH  062%=      5-min Rain = 0
KCXS 110605Z 14007KT 18/10 A3019 RMK A01 T01760098  RH  062%=      5-min Rain = 0
KCXS 110610Z 14008KT 18/10 A3019 RMK A01 T01750098  RH  062%=      5-min Rain = 0
KCXS 110615Z 14008KT 17/10 A3019 RMK A01 T01740098  RH  063%=      5-min Rain = 0
KCXS 110620Z 14008KT 17/10 A3019 RMK A01 T01730098  RH  063%=      5-min Rain = 0
KCXS 110625Z 15008KT 17/10 A3019 RMK A01 T01730098  RH  063%=      5-min Rain = 0
KCXS 110630Z 15008KT 17/10 A3019 RMK A01 T01730098  RH  063%=      5-min Rain = 0
KCXS 110635Z 15008KT 17/10 A3019 RMK A01 T01730097  RH  063%=      5-min Rain = 0
KCXS 110640Z 15008KT 17/10 A3019 RMK A01 T01720098  RH  063%=      5-min Rain = 0
KCXS 110645Z 15008KT 17/10 A3019 RMK A01 T01710098  RH  064%=      5-min Rain = 0
KCXS 110650Z 15008KT 17/10 A3019 RMK A01 T01710097  RH  064%=      5-min Rain = 0
KCXS 110655Z 15008KT 17/10 A3019 RMK A01 T01710097  RH  064%=      5-min Rain = 0
KCXS 110700Z 15008KT 17/10 A3019 RMK A01 T01710096  RH  064%=      5-min Rain = 0
KCXS 110705Z 15008KT 17/10 A3019 RMK A01 T01700097  RH  064%=      5-min Rain = 0
KCXS 110710Z 16008KT 17/10 A3018 RMK A01 T01680097  RH  065%=      5-min Rain = 0
KCXS 110715Z 16008KT 17/10 A3018 RMK A01 T01670097  RH  065%=      5-min Rain = 0
KCXS 110720Z 16008KT 17/10 A3018 RMK A01 T01660097  RH  065%=      5-min Rain = 0
KCXS 110725Z 15008KT 17/10 A3018 RMK A01 T01670097  RH  065%=      5-min Rain = 0
KCXS 110730Z 15008KT 17/10 A3019 RMK A01 T01670097  RH  065%=      5-min Rain = 0
KCXS 110735Z 16008KT 17/10 A3019 RMK A01 T01660097  RH  066%=      5-min Rain = 0
KCXS 110740Z 16008KT 17/10 A3018 RMK A01 T01650097  RH  066%=      5-min Rain = 0
KCXS 110745Z 16008KT 17/10 A3018 RMK A01 T01650097  RH  066%=      5-min Rain = 0
KCXS 110750Z 16008KT 17/10 A3018 RMK A01 T01650098  RH  066%=      5-min Rain = 0
KCXS 110755Z 17009KT 17/10 A3018 RMK A01 T01650097  RH  066%=      5-min Rain = 0
KCXS 110800Z 17009KT 17/10 A3018 RMK A01 T01660097  RH  066%=      5-min Rain = 0
KCXS 110805Z 17008KT 17/10 A3018 RMK A01 T01670097  RH  065%=      5-min Rain = 0
KCXS 110810Z 17008KT 17/10 A3018 RMK A01 T01690097  RH  065%=      5-min Rain = 0
KCXS 110815Z 17008KT 17/10 A3018 RMK A01 T01700097  RH  064%=      5-min Rain = 0
KCXS 110820Z 16007KT 17/10 A3018 RMK A01 T01690097  RH  065%=      5-min Rain = 0
KCXS 110825Z 16007KT 17/10 A3018 RMK A01 T01670098  RH  066%=      5-min Rain = 0
KCXS 110830Z 17008KT 17/10 A3018 RMK A01 T01650098  RH  066%=      5-min Rain = 0
KCXS 110835Z 17008KT 16/10 A3018 RMK A01 T01640098  RH  067%=      5-min Rain = 0
KCXS 110840Z 18008KT 16/10 A3017 RMK A01 T01640098  RH  067%=      5-min Rain = 0
KCXS 110845Z 17008KT 17/10 A3017 RMK A01 T01650099  RH  067%=      5-min Rain = 0
KCXS 110850Z 17008KT 17/10 A3018 RMK A01 T01660099  RH  067%=      5-min Rain = 0
KCXS 110855Z 18008KT 17/10 A3018 RMK A01 T01680100  RH  066%=      5-min Rain = 0
KCXS 110900Z 18008KT 17/10 A3018 RMK A01 T01680100  RH  066%=      5-min Rain = 0
KCXS 110905Z 18008KT 17/10 A3018 RMK A01 T01710100  RH  065%=      5-min Rain = 0
KCXS 110910Z 18008KT 17/10 A3018 RMK A01 T01730100  RH  064%=      5-min Rain = 0
KCXS 110915Z 18007KT 17/10 A3018 RMK A01 T01710100  RH  065%=      5-min Rain = 0
KCXS 110920Z 18007KT 17/10 A3018 RMK A01 T01690101  RH  066%=      5-min Rain = 0
KCXS 110925Z 18007KT 17/10 A3018 RMK A01 T01680101  RH  066%=      5-min Rain = 0
KCXS 110930Z 18007KT 17/10 A3018 RMK A01 T01680101  RH  067%=      5-min Rain = 0
KCXS 110935Z 19006KT 17/10 A3018 RMK A01 T01660100  RH  067%=      5-min Rain = 0
KCXS 110940Z 19006KT 17/10 A3018 RMK A01 T01660100  RH  067%=      5-min Rain = 0
KCXS 110945Z 19006KT 17/10 A3018 RMK A01 T01650100  RH  067%=      5-min Rain = 0
KCXS 110950Z 19006KT 17/10 A3018 RMK A01 T01650100  RH  068%=      5-min Rain = 0
KCXS 110955Z 19005KT 17/10 A3018 RMK A01 T01650100  RH  068%=      5-min Rain = 0
KCXS 111000Z 19005KT 16/10 A3018 RMK A01 T01640100  RH  068%=      5-min Rain = 0
KCXS 111005Z 20005KT 16/10 A3018 RMK A01 T01630099  RH  068%=      5-min Rain = 0
KCXS 111010Z 20005KT 16/10 A3018 RMK A01 T01640099  RH  068%=      5-min Rain = 0
KCXS 111015Z 21006KT 16/10 A3018 RMK A01 T01640099  RH  068%=      5-min Rain = 0
KCXS 111020Z 21006KT 16/10 A3018 RMK A01 T01640099  RH  068%=      5-min Rain = 0
KCXS 111025Z 21006KT 16/10 A3018 RMK A01 T01640100  RH  068%=      5-min Rain = 0
KCXS 111030Z 21006KT 16/10 A3018 RMK A01 T01640099  RH  068%=      5-min Rain = 0
KCXS 111035Z 22006KT 16/10 A3018 RMK A01 T01640099  RH  068%=      5-min Rain = 0
KCXS 111040Z 22006KT 16/10 A3018 RMK A01 T01640099  RH  067%=      5-min Rain = 0
KCXS 111045Z 22006KT 17/10 A3018 RMK A01 T01650099  RH  067%=      5-min Rain = 0
KCXS 111050Z 22006KT 17/10 A3018 RMK A01 T01650099  RH  067%=      5-min Rain = 0
KCXS 111055Z 23006KT 17/10 A3018 RMK A01 T01650099  RH  067%=      5-min Rain = 0
KCXS 111100Z 23006KT 16/10 A3018 RMK A01 T01640099  RH  067%=      5-min Rain = 0
KCXS 111105Z 23006KT 16/10 A3018 RMK A01 T01630098  RH  067%=      5-min Rain = 0
KCXS 111110Z 23006KT 16/10 A3018 RMK A01 T01630098  RH  067%=      5-min Rain = 0
KCXS 111115Z 23006KT 16/10 A3018 RMK A01 T01620098  RH  068%=      5-min Rain = 0
KCXS 111120Z 23007KT 16/10 A3018 RMK A01 T01610098  RH  068%=      5-min Rain = 0
KCXS 111125Z 23007KT 16/10 A3018 RMK A01 T01600098  RH  069%=      5-min Rain = 0
KCXS 111130Z 24007KT 16/10 A3018 RMK A01 T01580098  RH  070%=      5-min Rain = 0
KCXS 111135Z 23007KT 16/10 A3018 RMK A01 T01580098  RH  070%=      5-min Rain = 0
KCXS 111140Z 23007KT 16/10 A3018 RMK A01 T01590098  RH  070%=      5-min Rain = 0
KCXS 111145Z 24007KT 16/10 A3018 RMK A01 T01590098  RH  070%=      5-min Rain = 0
KCXS 111150Z 24007KT 16/10 A3018 RMK A01 T01580098  RH  070%=      5-min Rain = 0
KCXS 111155Z 24006KT 16/10 A3019 RMK A01 T01570098  RH  070%=      5-min Rain = 0
KCXS 111200Z 24007KT 16/10 A3019 RMK A01 T01560098  RH  070%=      5-min Rain = 0
KCXS 111205Z 23006KT 16/10 A3019 RMK A01 T01560098  RH  071%=      5-min Rain = 0
KCXS 111210Z 23006KT 16/10 A3019 RMK A01 T01560098  RH  070%=      5-min Rain = 0
KCXS 111215Z 23006KT 16/10 A3019 RMK A01 T01570098  RH  070%=      5-min Rain = 0
KCXS 111220Z 24006KT 16/10 A3019 RMK A01 T01570097  RH  070%=      5-min Rain = 0
KCXS 111225Z 25004KT 16/10 A3019 RMK A01 T01570097  RH  070%=      5-min Rain = 0
KCXS 111230Z 25004KT 16/10 A3019 RMK A01 T01560097  RH  070%=      5-min Rain = 0
KCXS 111235Z 26004KT 16/10 A3019 RMK A01 T01560097  RH  070%=      5-min Rain = 0
KCXS 111240Z 26005KT 16/10 A3019 RMK A01 T01560098  RH  070%=      5-min Rain = 0
KCXS 111245Z 27004KT 16/10 A3019 RMK A01 T01560098  RH  070%=      5-min Rain = 0
KCXS 111250Z 28004KT 16/10 A3019 RMK A01 T01570098  RH  070%=      5-min Rain = 0
KCXS 111255Z 30003KT 16/10 A3019 RMK A01 T01550098  RH  071%=      5-min Rain = 0
KCXS 111300Z 32003KT 15/10 A3019 RMK A01 T01510099  RH  073%=      5-min Rain = 0
KCXS 111305Z 33003KT 15/10 A302 RMK A01 T01500101  RH  075%=      5-min Rain = 0
KCXS 111310Z 34002KT 15/10 A302 RMK A01 T01530102  RH  074%=      5-min Rain = 0
KCXS 111315Z 34001KT 16/10 A302 RMK A01 T01560104  RH  073%=      5-min Rain = 0
KCXS 111320Z 32001KT 16/11 A302 RMK A01 T01620105  RH  071%=      5-min Rain = 0
KCXS 111325Z 31002KT 17/11 A302 RMK A01 T01650105  RH  070%=      5-min Rain = 0
KCXS 111330Z 00002KT 17/11 A302 RMK A01 T01670107  RH  070%=      5-min Rain = 0
KCXS 111335Z 03002KT 17/11 A302 RMK A01 T01710108  RH  069%=      5-min Rain = 0
KCXS 111340Z 35000KT 17/11 A3021 RMK A01 T01740108  RH  067%=      5-min Rain = 0
KCXS 111345Z 34001KT 18/11 A3021 RMK A01 T01790109  RH  066%=      5-min Rain = 0
KCXS 111350Z 34001KT 18/11 A3021 RMK A01 T01820111  RH  065%=      5-min Rain = 0
KCXS 111355Z 34002KT 18/11 A3021 RMK A01 T01840111  RH  065%=      5-min Rain = 0
KCXS 111400Z 32002KT 19/11 A3021 RMK A01 T01880111  RH  063%=      5-min Rain = 0
KCXS 111405Z 24002KT 19/11 A3021 RMK A01 T01940109  RH  060%=      5-min Rain = 0
KCXS 111410Z 25002KT 20/11 A3021 RMK A01 T02000109  RH  058%=      5-min Rain = 0
KCXS 111415Z 25002KT 20/11 A3021 RMK A01 T02030110  RH  057%=      5-min Rain = 0
KCXS 111420Z 22002KT 21/11 A3021 RMK A01 T02080111  RH  055%=      5-min Rain = 0
KCXS 111425Z 20004KT 22/11 A3021 RMK A01 T02150108  RH  052%=      5-min Rain = 0
KCXS 111430Z 20007KT 22/11 A3021 RMK A01 T02200105  RH  050%=      5-min Rain = 0
KCXS 111435Z 19006KT 22/11 A302 RMK A01 T02220106  RH  049%=      5-min Rain = 0
KCXS 111440Z 20006KT 22/11 A302 RMK A01 T02240107  RH  049%=      5-min Rain = 0
KCXS 111445Z 20005KT 23/11 A302 RMK A01 T02280108  RH  048%=      5-min Rain = 0
KCXS 111450Z 21006KT 23/11 A302 RMK A01 T02300106  RH  047%=      5-min Rain = 0
KCXS 111455Z 22007KT 23/10 A3021 RMK A01 T02300104  RH  047%=      5-min Rain = 0
KCXS 111500Z 20007KT 23/11 A3021 RMK A01 T02300105  RH  047%=      5-min Rain = 0
KCXS 111505Z 20007KT 23/10 A3021 RMK A01 T02320104  RH  046%=      5-min Rain = 0
KCXS 111510Z 19006KT 23/10 A3021 RMK A01 T02330103  RH  045%=      5-min Rain = 0
KCXS 111515Z 18007KT 24/10 A3021 RMK A01 T02360104  RH  045%=      5-min Rain = 0
KCXS 111520Z 18007KT 24/10 A3021 RMK A01 T02380103  RH  044%=      5-min Rain = 0
KCXS 111525Z 19006KT 24/10 A3021 RMK A01 T02400104  RH  044%=      5-min Rain = 0
KCXS 111530Z 18006KT 24/11 A3021 RMK A01 T02420105  RH  043%=      5-min Rain = 0
KCXS 111535Z 19007KT 24/10 A3021 RMK A01 T02440103  RH  042%=      5-min Rain = 0
KCXS 111540Z 18007KT 25/10 A3021 RMK A01 T02450104  RH  042%=      5-min Rain = 0
KCXS 111545Z 19007KT 25/10 A3021 RMK A01 T02450102  RH  042%=      5-min Rain = 0
KCXS 111550Z 19006KT 25/10 A3021 RMK A01 T02450103  RH  042%=      5-min Rain = 0
KCXS 111555Z 17007KT 25/10 A3021 RMK A01 T02490102  RH  041%=      5-min Rain = 0
KCXS 111600Z 17008KT 25/10 A3021 RMK A01 T02500102  RH  041%=      5-min Rain = 0
KCXS 111605Z 19007KT 25/10 A3021 RMK A01 T02530103  RH  040%=      5-min Rain = 0
KCXS 111610Z 18006KT 25/10 A3021 RMK A01 T02530102  RH  040%=      5-min Rain = 0
KCXS 111615Z 18006KT 25/10 A302 RMK A01 T02530102  RH  040%=      5-min Rain = 0
KCXS 111620Z 18006KT 26/10 A3021 RMK A01 T02550103  RH  040%=      5-min Rain = 0
KCXS 111625Z 17006KT 26/10 A302 RMK A01 T02560102  RH  039%=      5-min Rain = 0
KCXS 111630Z 17007KT 26/10 A302 RMK A01 T02590103  RH  039%=      5-min Rain = 0
KCXS 111635Z 16006KT 26/10 A302 RMK A01 T02600102  RH  038%=      5-min Rain = 0
KCXS 111640Z 14006KT 26/10 A302 RMK A01 T02600101  RH  038%=      5-min Rain = 0
KCXS 111645Z 17007KT 26/10 A302 RMK A01 T02620102  RH  038%=      5-min Rain = 0
KCXS 111650Z 19005KT 26/10 A3019 RMK A01 T02630102  RH  038%=      5-min Rain = 0
KCXS 111655Z 18005KT 26/10 A3019 RMK A01 T02630101  RH  037%=      5-min Rain = 0
KCXS 111700Z 17006G12KT 27/10 A3019 RMK A01 T02670101  RH  037%=      5-min Rain = 0
KCXS 111705Z 15005KT 27/10 A3019 RMK A01 T02670099  RH  036%=      5-min Rain = 0
KCXS 111710Z 15004G9KT 27/10 A3019 RMK A01 T02650100  RH  037%=      5-min Rain = 0
KCXS 111715Z 16005KT 27/10 A3018 RMK A01 T02680100  RH  036%=      5-min Rain = 0
KCXS 111720Z 21005G10KT 27/10 A3018 RMK A01 T02700099  RH  035%=      5-min Rain = 0
KCXS 111725Z 20005KT 28/10 A3018 RMK A01 T02760101  RH  035%=      5-min Rain = 0
KCXS 111730Z 17005KT 27/10 A3018 RMK A01 T02730098  RH  035%=      5-min Rain = 0
KCXS 111735Z 16004KT 27/10 A3018 RMK A01 T02690099  RH  035%=      5-min Rain = 0
KCXS 111740Z 19003KT 27/10 A3018 RMK A01 T02710099  RH  035%=      5-min Rain = 0
KCXS 111745Z 21005KT 28/10 A3017 RMK A01 T02750099  RH  034%=      5-min Rain = 0
KCXS 111750Z 17005KT 28/10 A3017 RMK A01 T02800101  RH  034%=      5-min Rain = 0
KCXS 111755Z 21003KT 28/10 A3017 RMK A01 T02790099  RH  033%=      5-min Rain = 0
KCXS 111800Z 22006KT 28/10 A3017 RMK A01 T02780099  RH  034%=      5-min Rain = 0
KCXS 111805Z 18004KT 28/10 A3017 RMK A01 T02780098  RH  033%=      5-min Rain = 0
KCXS 111810Z 21004KT 28/10 A3016 RMK A01 T02810099  RH  033%=      5-min Rain = 0
KCXS 111815Z 27006KT 28/10 A3016 RMK A01 T02830099  RH  033%=      5-min Rain = 0
KCXS 111820Z 25005KT 28/10 A3016 RMK A01 T02830097  RH  032%=      5-min Rain = 0
KCXS 111825Z 28003KT 28/10 A3016 RMK A01 T02820097  RH  033%=      5-min Rain = 0
KCXS 111830Z 14001KT 28/10 A3015 RMK A01 T02840098  RH  032%=      5-min Rain = 0
KCXS 111835Z 18003KT 29/10 A3015 RMK A01 T02880098  RH  032%=      5-min Rain = 0
KCXS 111840Z 23004KT 29/10 A3015 RMK A01 T02900098  RH  031%=      5-min Rain = 0
KCXS 111845Z 20004G9KT 29/10 A3014 RMK A01 T02880099  RH  032%=      5-min Rain = 0
KCXS 111850Z 19005KT 29/10 A3014 RMK A01 T02880098  RH  031%=      5-min Rain = 0
KCXS 111855Z 15003KT 29/10 A3014 RMK A01 T02890097  RH  031%=      5-min Rain = 0
KCXS 111900Z 15003KT 29/10 A3014 RMK A01 T02880098  RH  032%=      5-min Rain = 0
KCXS 111905Z 17004KT 30/10 A3014 RMK A01 T02950100  RH  031%=      5-min Rain = 0
KCXS 111910Z 14004G9KT 30/10 A3014 RMK A01 T02990100  RH  030%=      5-min Rain = 0
KCXS 111915Z 10004G9KT 30/10 A3013 RMK A01 T03020101  RH  030%=      5-min Rain = 0
KCXS 111920Z 09004KT 30/10 A3013 RMK A01 T02950098  RH  030%=      5-min Rain = 0
KCXS 111925Z 07005KT 30/10 A3013 RMK A01 T02970099  RH  030%=      5-min Rain = 0
KCXS 111930Z 10004KT 30/10 A3012 RMK A01 T02960097  RH  030%=      5-min Rain = 0
KCXS 111935Z 00003KT 30/10 A3012 RMK A01 T02950098  RH  030%=      5-min Rain = 0
KCXS 111940Z 09003KT 30/10 A3012 RMK A01 T03000101  RH  030%=      5-min Rain = 0
KCXS 111945Z 05003G8KT 30/10 A3012 RMK A01 T03020099  RH  029%=      5-min Rain = 0
KCXS 111950Z 34004G9KT 30/10 A3011 RMK A01 T03020098  RH  029%=      5-min Rain = 0
KCXS 111955Z 34004KT 30/10 A3011 RMK A01 T02990096  RH  029%=      5-min Rain = 0
KCXS 112000Z 33005KT 30/10 A3011 RMK A01 T02990098  RH  030%=      5-min Rain = 0
KCXS 112005Z 01003KT 30/10 A301 RMK A01 T02990097  RH  029%=      5-min Rain = 0
KCXS 112010Z 33003KT 30/10 A301 RMK A01 T03020098  RH  029%=      5-min Rain = 0
KCXS 112015Z 02003KT 30/10 A301 RMK A01 T03040099  RH  029%=      5-min Rain = 0
KCXS 112020Z 06007KT 30/10 A3009 RMK A01 T03030099  RH  029%=      5-min Rain = 0
KCXS 112025Z 07004KT 30/10 A3009 RMK A01 T03020099  RH  029%=      5-min Rain = 0
KCXS 112030Z 01006KT 31/10 A3009 RMK A01 T03070101  RH  029%=      5-min Rain = 0
KCXS 112035Z 34005KT 31/10 A3009 RMK A01 T03060100  RH  029%=      5-min Rain = 0
KCXS 112040Z 36002G7KT 31/10 A3009 RMK A01 T03060099  RH  029%=      5-min Rain = 0
KCXS 112045Z 03004KT 31/10 A3008 RMK A01 T03070100  RH  029%=      5-min Rain = 0
KCXS 112050Z 14003KT 30/10 A3008 RMK A01 T03040097  RH  029%=      5-min Rain = 0
KCXS 112055Z 08001KT 30/10 A3008 RMK A01 T03030100  RH  029%=      5-min Rain = 0
KCXS 112100Z 09001KT 31/10 A3008 RMK A01 T03090101  RH  029%=      5-min Rain = 0
KCXS 112105Z 17001KT 31/10 A3008 RMK A01 T03130104  RH  028%=      5-min Rain = 0
KCXS 112110Z 03003KT 31/10 A3008 RMK A01 T03140102  RH  028%=      5-min Rain = 0
KCXS 112115Z 05005KT 31/10 A3007 RMK A01 T03120101  RH  028%=      5-min Rain = 0
KCXS 112120Z 08005G16KT 31/10 A3007 RMK A01 T03090102  RH  029%=      5-min Rain = 0
KCXS 112125Z 13003KT 31/10 A3007 RMK A01 T03120101  RH  028%=      5-min Rain = 0
KCXS 112130Z 09002KT 31/10 A3007 RMK A01 T03130103  RH  028%=      5-min Rain = 0
KCXS 112135Z 01004KT 31/10 A3007 RMK A01 T03110100  RH  028%=      5-min Rain = 0
KCXS 112140Z 01003KT 31/10 A3006 RMK A01 T03100100  RH  028%=      5-min Rain = 0
KCXS 112145Z 04003KT 31/10 A3006 RMK A01 T03080100  RH  028%=      5-min Rain = 0
KCXS 112150Z 34003KT 31/10 A3006 RMK A01 T03090101  RH  029%=      5-min Rain = 0
KCXS 112155Z 04004KT 31/10 A3006 RMK A01 T03100101  RH  028%=      5-min Rain = 0
KCXS 112200Z 04005KT 31/10 A3006 RMK A01 T03100101  RH  028%=      5-min Rain = 0
KCXS 112205Z 03003KT 31/10 A3006 RMK A01 T03080099  RH  028%=      5-min Rain = 0
KCXS 112210Z 02001KT 31/10 A3005 RMK A01 T03080098  RH  028%=      5-min Rain = 0
KCXS 112215Z 06002KT 31/10 A3005 RMK A01 T03100099  RH  028%=      5-min Rain = 0
KCXS 112220Z 02001KT 31/10 A3005 RMK A01 T03090100  RH  028%=      5-min Rain = 0
KCXS 112225Z 13002KT 31/10 A3005 RMK A01 T03110102  RH  029%=      5-min Rain = 0
KCXS 112230Z 11006KT 31/11 A3005 RMK A01 T03100105  RH  029%=      5-min Rain = 0
KCXS 112235Z 11005KT 31/10 A3005 RMK A01 T03090103  RH  029%=      5-min Rain = 0
KCXS 112240Z 06006KT 31/10 A3005 RMK A01 T03100104  RH  029%=      5-min Rain = 0
KCXS 112245Z 09005KT 31/10 A3005 RMK A01 T03070103  RH  029%=      5-min Rain = 0
KCXS 112250Z 09005KT 31/10 A3005 RMK A01 T03060103  RH  029%=      5-min Rain = 0
KCXS 112255Z 10006KT 31/10 A3005 RMK A01 T03050104  RH  030%=      5-min Rain = 0
KCXS 112300Z 04004KT 30/10 A3005 RMK A01 T03040101  RH  029%=      5-min Rain = 0
KCXS 112305Z 04003KT 31/10 A3005 RMK A01 T03050103  RH  030%=      5-min Rain = 0
KCXS 112310Z 08006KT 31/11 A3005 RMK A01 T03050105  RH  030%=      5-min Rain = 0
KCXS 112315Z 09006KT 30/10 A3005 RMK A01 T03030104  RH  030%=      5-min Rain = 0
KCXS 112320Z 09007KT 30/10 A3005 RMK A01 T03000104  RH  031%=      5-min Rain = 0
KCXS 112325Z 10006KT 30/10 A3005 RMK A01 T02990103  RH  031%=      5-min Rain = 0
KCXS 112330Z 09006KT 30/10 A3005 RMK A01 T02980104  RH  031%=      5-min Rain = 0
KCXS 112335Z 07004KT 30/11 A3005 RMK A01 T02980106  RH  031%=      5-min Rain = 0
KCXS 112340Z 07006KT 30/10 A3005 RMK A01 T02970102  RH  031%=      5-min Rain = 0
KCXS 112345Z 07006KT 30/10 A3005 RMK A01 T02950101  RH  031%=      5-min Rain = 0
KCXS 112350Z 08006KT 29/10 A3005 RMK A01 T02940101  RH  031%=      5-min Rain = 0
KCXS 112355Z 07005KT 29/10 A3005 RMK A01 T02920102  RH  032%=      5-min Rain = 0
KCXS 120000Z 09008KT 29/10 A3005 RMK A01 T02900103  RH  032%=      5-min Rain = 0
KCXS 120005Z 10007KT 29/11 A3005 RMK A01 T02860106  RH  034%=      5-min Rain = 0
KCXS 120010Z 11007KT 28/11 A3005 RMK A01 T02830107  RH  035%=      5-min Rain = 0
KCXS 120015Z 11007KT 28/11 A3005 RMK A01 T02800107  RH  035%=      5-min Rain = 0
KCXS 120020Z 12006KT 28/11 A3005 RMK A01 T02760109  RH  036%=      5-min Rain = 0
KCXS 120025Z 11007KT 27/11 A3005 RMK A01 T02730109  RH  037%=      5-min Rain = 0
KCXS 120030Z 10006KT 27/11 A3005 RMK A01 T02690111  RH  039%=      5-min Rain = 0
KCXS 120035Z 11006KT 26/11 A3005 RMK A01 T02640112  RH  040%=      5-min Rain = 0
KCXS 120040Z 11007KT 26/11 A3005 RMK A01 T02610112  RH  041%=      5-min Rain = 0
KCXS 120045Z 10007KT 26/11 A3005 RMK A01 T02580113  RH  042%=      5-min Rain = 0
KCXS 120050Z 10007KT 25/11 A3005 RMK A01 T02540112  RH  043%=      5-min Rain = 0
KCXS 120055Z 11008KT 25/11 A3004 RMK A01 T02530111  RH  042%=      5-min Rain = 0
KCXS 120100Z 10008KT 25/11 A3004 RMK A01 T02510111  RH  043%=      5-min Rain = 0
KCXS 120105Z 10008KT 25/11 A3004 RMK A01 T02470111  RH  044%=      5-min Rain = 0
KCXS 120110Z 09008KT 24/11 A3004 RMK A01 T02430110  RH  045%=      5-min Rain = 0
KCXS 120115Z 09008KT 24/11 A3004 RMK A01 T02410108  RH  045%=      5-min Rain = 0
KCXS 120120Z 09008KT 24/11 A3005 RMK A01 T02410107  RH  044%=      5-min Rain = 0
KCXS 120125Z 09008KT 24/11 A3004 RMK A01 T02410107  RH  044%=      5-min Rain = 0
KCXS 120130Z 09009KT 24/11 A3004 RMK A01 T02390107  RH  045%=      5-min Rain = 0
KCXS 120135Z 09008KT 24/11 A3004 RMK A01 T02410106  RH  044%=      5-min Rain = 0
KCXS 120140Z 09008KT 24/11 A3004 RMK A01 T02410107  RH  044%=      5-min Rain = 0
KCXS 120145Z 10007KT 24/11 A3005 RMK A01 T02410108  RH  045%=      5-min Rain = 0
KCXS 120150Z 11007KT 24/11 A3005 RMK A01 T02370109  RH  046%=      5-min Rain = 0
KCXS 120155Z 11007KT 23/11 A3005 RMK A01 T02340110  RH  047%=      5-min Rain = 0
KCXS 120200Z 10008KT 23/11 A3005 RMK A01 T02330111  RH  048%=      5-min Rain = 0
KCXS 120205Z 11007KT 23/11 A3005 RMK A01 T02300113  RH  049%=      5-min Rain = 0
KCXS 120210Z 13006KT 22/12 A3006 RMK A01 T02230115  RH  052%=      5-min Rain = 0
KCXS 120215Z 12006KT 22/11 A3006 RMK A01 T02190114  RH  053%=      5-min Rain = 0
KCXS 120220Z 12007KT 22/11 A3006 RMK A01 T02200114  RH  053%=      5-min Rain = 0
KCXS 120225Z 12007KT 22/11 A3006 RMK A01 T02200114  RH  053%=      5-min Rain = 0
KCXS 120230Z 11007KT 22/11 A3006 RMK A01 T02200114  RH  053%=      5-min Rain = 0
KCXS 120235Z 11007KT 22/11 A3006 RMK A01 T02200114  RH  053%=      5-min Rain = 0
KCXS 120240Z 11008KT 22/12 A3006 RMK A01 T02200115  RH  053%=      5-min Rain = 0
KCXS 120245Z 11008KT 22/12 A3006 RMK A01 T02190115  RH  054%=      5-min Rain = 0
KCXS 120250Z 11008KT 22/12 A3006 RMK A01 T02180116  RH  054%=      5-min Rain = 0
KCXS 120255Z 11007KT 22/12 A3006 RMK A01 T02160116  RH  055%=      5-min Rain = 0
KCXS 120300Z 11007KT 21/12 A3006 RMK A01 T02130116  RH  056%=      5-min Rain = 0
KCXS 120305Z 12007KT 21/12 A3006 RMK A01 T02120116  RH  056%=      5-min Rain = 0
KCXS 120310Z 12006KT 21/12 A3006 RMK A01 T02090117  RH  057%=      5-min Rain = 0
KCXS 120315Z 15005KT 21/12 A3006 RMK A01 T02060117  RH  059%=      5-min Rain = 0
KCXS 120320Z 15005KT 20/12 A3006 RMK A01 T02040115  RH  059%=      5-min Rain = 0
KCXS 120325Z 15005KT 21/11 A3006 RMK A01 T02050114  RH  058%=      5-min Rain = 0
KCXS 120330Z 14005KT 21/11 A3006 RMK A01 T02060114  RH  057%=      5-min Rain = 0
KCXS 120335Z 14005KT 21/11 A3007 RMK A01 T02080114  RH  057%=      5-min Rain = 0
KCXS 120340Z 14005KT 21/11 A3007 RMK A01 T02090114  RH  056%=      5-min Rain = 0
KCXS 120345Z 15004KT 21/11 A3007 RMK A01 T02110113  RH  056%=      5-min Rain = 0
KCXS 120350Z 14004KT 21/11 A3007 RMK A01 T02140112  RH  054%=      5-min Rain = 0
KCXS 120355Z 14005KT 22/11 A3007 RMK A01 T02160112  RH  053%=      5-min Rain = 0
KCXS 120400Z 14005KT 22/11 A3007 RMK A01 T02170111  RH  053%=      5-min Rain = 0
KCXS 120405Z 15005KT 22/11 A3007 RMK A01 T02160112  RH  053%=      5-min Rain = 0
KCXS 120410Z 15005KT 21/11 A3007 RMK A01 T02140112  RH  054%=      5-min Rain = 0
KCXS 120415Z 15005KT 21/11 A3007 RMK A01 T02130111  RH  054%=      5-min Rain = 0
KCXS 120420Z 15005KT 21/11 A3007 RMK A01 T02130110  RH  054%=      5-min Rain = 0
KCXS 120425Z 15004KT 21/11 A3007 RMK A01 T02110110  RH  054%=      5-min Rain = 0
KCXS 120430Z 16004KT 21/11 A3007 RMK A01 T02110110  RH  054%=      5-min Rain = 0
KCXS 120435Z 16004KT 21/11 A3007 RMK A01 T02120110  RH  054%=      5-min Rain = 0
KCXS 120440Z 16004KT 21/11 A3007 RMK A01 T02120110  RH  054%=      5-min Rain = 0
KCXS 120445Z 16004KT 21/11 A3007 RMK A01 T02110110  RH  054%=      5-min Rain = 0
KCXS 120450Z 15004KT 21/11 A3007 RMK A01 T02110109  RH  054%=      5-min Rain = 0
KCXS 120455Z 14005KT 21/11 A3007 RMK A01 T02130109  RH  053%=      5-min Rain = 0

Page generated in 0.0349 seconds.